sensor_id;sensor_type;location;lat;lon;timestamp;temperature;humidity
7174;DHT22;3628;48.654;8.932;2023-06-14T00:00:18;16.60;66.70
7174;DHT22;3628;48.654;8.932;2023-06-14T00:02:43;16.50;67.90
7174;DHT22;3628;48.654;8.932;2023-06-14T00:05:09;16.50;68.10
7174;DHT22;3628;48.654;8.932;2023-06-14T00:07:41;16.30;67.80
7174;DHT22;3628;48.654;8.932;2023-06-14T00:10:11;16.20;67.70
7174;DHT22;3628;48.654;8.932;2023-06-14T00:12:38;16.10;68.00
7174;DHT22;3628;48.654;8.932;2023-06-14T00:15:05;16.10;68.60
7174;DHT22;3628;48.654;8.932;2023-06-14T00:17:31;16.00;68.70
7174;DHT22;3628;48.654;8.932;2023-06-14T00:19:58;15.90;68.70
7174;DHT22;3628;48.654;8.932;2023-06-14T00:22:24;15.80;69.40
7174;DHT22;3628;48.654;8.932;2023-06-14T00:24:51;15.70;69.80
7174;DHT22;3628;48.654;8.932;2023-06-14T00:27:16;15.60;69.40
7174;DHT22;3628;48.654;8.932;2023-06-14T00:29:42;15.50;69.60
7174;DHT22;3628;48.654;8.932;2023-06-14T00:32:08;15.00;69.50
7174;DHT22;3628;48.654;8.932;2023-06-14T00:34:33;15.10;72.10
7174;DHT22;3628;48.654;8.932;2023-06-14T00:36:59;15.50;72.60
7174;DHT22;3628;48.654;8.932;2023-06-14T00:39:25;16.00;72.10
7174;DHT22;3628;48.654;8.932;2023-06-14T00:41:50;16.00;70.40
7174;DHT22;3628;48.654;8.932;2023-06-14T00:44:16;16.20;70.70
7174;DHT22;3628;48.654;8.932;2023-06-14T00:46:43;16.30;70.50
7174;DHT22;3628;48.654;8.932;2023-06-14T00:49:09;16.30;70.20
7174;DHT22;3628;48.654;8.932;2023-06-14T00:51:35;16.00;69.30
7174;DHT22;3628;48.654;8.932;2023-06-14T00:54:03;15.70;69.60
7174;DHT22;3628;48.654;8.932;2023-06-14T00:56:28;15.50;70.20
7174;DHT22;3628;48.654;8.932;2023-06-14T00:58:55;15.40;71.40
7174;DHT22;3628;48.654;8.932;2023-06-14T01:01:21;15.70;72.60
7174;DHT22;3628;48.654;8.932;2023-06-14T01:03:47;15.80;71.50
7174;DHT22;3628;48.654;8.932;2023-06-14T01:09:12;15.40;71.20
7174;DHT22;3628;48.654;8.932;2023-06-14T01:11:50;15.20;71.50
7174;DHT22;3628;48.654;8.932;2023-06-14T01:14:20;14.90;72.10
7174;DHT22;3628;48.654;8.932;2023-06-14T01:16:47;14.80;72.80
7174;DHT22;3628;48.654;8.932;2023-06-14T01:19:18;14.60;72.90
7174;DHT22;3628;48.654;8.932;2023-06-14T01:21:48;14.50;73.60
7174;DHT22;3628;48.654;8.932;2023-06-14T01:24:16;14.40;73.90
7174;DHT22;3628;48.654;8.932;2023-06-14T01:26:45;14.30;74.70
7174;DHT22;3628;48.654;8.932;2023-06-14T01:29:11;14.30;75.30
7174;DHT22;3628;48.654;8.932;2023-06-14T01:31:38;14.30;75.40
7174;DHT22;3628;48.654;8.932;2023-06-14T01:34:07;14.50;76.70
7174;DHT22;3628;48.654;8.932;2023-06-14T01:36:34;14.80;76.20
7174;DHT22;3628;48.654;8.932;2023-06-14T01:39:01;14.70;75.30
7174;DHT22;3628;48.654;8.932;2023-06-14T01:41:27;14.90;77.10
7174;DHT22;3628;48.654;8.932;2023-06-14T01:43:54;15.20;76.10
7174;DHT22;3628;48.654;8.932;2023-06-14T01:46:21;14.90;74.80
7174;DHT22;3628;48.654;8.932;2023-06-14T01:48:47;14.60;75.20
7174;DHT22;3628;48.654;8.932;2023-06-14T01:51:13;14.60;76.60
7174;DHT22;3628;48.654;8.932;2023-06-14T01:53:38;14.30;76.70
7174;DHT22;3628;48.654;8.932;2023-06-14T01:56:04;14.20;77.20
7174;DHT22;3628;48.654;8.932;2023-06-14T01:58:30;14.00;78.50
7174;DHT22;3628;48.654;8.932;2023-06-14T02:00:56;13.90;79.40
7174;DHT22;3628;48.654;8.932;2023-06-14T02:03:23;13.70;80.40
7174;DHT22;3628;48.654;8.932;2023-06-14T02:05:49;13.80;82.60
7174;DHT22;3628;48.654;8.932;2023-06-14T02:08:15;14.00;83.90
7174;DHT22;3628;48.654;8.932;2023-06-14T02:10:40;14.10;83.00
7174;DHT22;3628;48.654;8.932;2023-06-14T02:13:06;14.10;83.70
7174;DHT22;3628;48.654;8.932;2023-06-14T02:15:31;14.60;85.50
7174;DHT22;3628;48.654;8.932;2023-06-14T02:18:03;14.50;83.30
7174;DHT22;3628;48.654;8.932;2023-06-14T02:20:29;14.70;82.60
7174;DHT22;3628;48.654;8.932;2023-06-14T02:22:55;14.60;81.30
7174;DHT22;3628;48.654;8.932;2023-06-14T02:25:21;14.70;83.40
7174;DHT22;3628;48.654;8.932;2023-06-14T02:27:47;14.70;82.50
7174;DHT22;3628;48.654;8.932;2023-06-14T02:30:12;14.70;83.60
7174;DHT22;3628;48.654;8.932;2023-06-14T02:32:38;14.80;82.40
7174;DHT22;3628;48.654;8.932;2023-06-14T02:35:06;15.20;83.10
7174;DHT22;3628;48.654;8.932;2023-06-14T02:37:32;15.20;81.20
7174;DHT22;3628;48.654;8.932;2023-06-14T02:39:59;15.20;80.40
7174;DHT22;3628;48.654;8.932;2023-06-14T02:42:25;15.40;81.30
7174;DHT22;3628;48.654;8.932;2023-06-14T02:44:50;15.70;81.20
7174;DHT22;3628;48.654;8.932;2023-06-14T02:47:18;15.90;79.40
7174;DHT22;3628;48.654;8.932;2023-06-14T02:49:44;15.70;78.30
7174;DHT22;3628;48.654;8.932;2023-06-14T02:52:11;15.80;78.10
7174;DHT22;3628;48.654;8.932;2023-06-14T02:54:37;15.50;76.80
7174;DHT22;3628;48.654;8.932;2023-06-14T02:57:03;15.40;78.10
7174;DHT22;3628;48.654;8.932;2023-06-14T02:59:28;15.10;77.60
7174;DHT22;3628;48.654;8.932;2023-06-14T03:01:54;14.70;78.20
7174;DHT22;3628;48.654;8.932;2023-06-14T03:04:19;14.30;79.20
7174;DHT22;3628;48.654;8.932;2023-06-14T03:06:46;14.40;84.20
7174;DHT22;3628;48.654;8.932;2023-06-14T03:09:15;14.60;83.30
7174;DHT22;3628;48.654;8.932;2023-06-14T03:11:41;14.40;82.60
7174;DHT22;3628;48.654;8.932;2023-06-14T03:14:07;14.20;83.70
7174;DHT22;3628;48.654;8.932;2023-06-14T03:16:33;13.90;84.10
7174;DHT22;3628;48.654;8.932;2023-06-14T03:18:59;13.70;85.80
7174;DHT22;3628;48.654;8.932;2023-06-14T03:21:25;13.50;87.60
7174;DHT22;3628;48.654;8.932;2023-06-14T03:23:51;13.50;88.30
7174;DHT22;3628;48.654;8.932;2023-06-14T03:26:18;13.30;90.00
7174;DHT22;3628;48.654;8.932;2023-06-14T03:28:44;13.10;90.20
7174;DHT22;3628;48.654;8.932;2023-06-14T03:31:14;13.10;91.10
7174;DHT22;3628;48.654;8.932;2023-06-14T03:33:41;13.10;92.70
7174;DHT22;3628;48.654;8.932;2023-06-14T03:36:07;13.60;92.90
7174;DHT22;3628;48.654;8.932;2023-06-14T03:38:33;13.70;91.70
7174;DHT22;3628;48.654;8.932;2023-06-14T03:40:58;13.90;91.80
7174;DHT22;3628;48.654;8.932;2023-06-14T03:43:24;14.20;92.30
7174;DHT22;3628;48.654;8.932;2023-06-14T03:45:50;14.60;91.00
7174;DHT22;3628;48.654;8.932;2023-06-14T03:48:16;14.70;90.00
7174;DHT22;3628;48.654;8.932;2023-06-14T03:50:41;14.50;87.80
7174;DHT22;3628;48.654;8.932;2023-06-14T03:53:08;14.50;89.40
7174;DHT22;3628;48.654;8.932;2023-06-14T03:55:34;14.30;88.00
7174;DHT22;3628;48.654;8.932;2023-06-14T03:58:00;14.20;89.30
7174;DHT22;3628;48.654;8.932;2023-06-14T04:00:26;14.10;90.50
7174;DHT22;3628;48.654;8.932;2023-06-14T04:02:52;14.20;91.50
7174;DHT22;3628;48.654;8.932;2023-06-14T04:05:19;14.60;91.20
7174;DHT22;3628;48.654;8.932;2023-06-14T04:07:45;14.80;89.40
7174;DHT22;3628;48.654;8.932;2023-06-14T04:10:15;14.50;88.10
7174;DHT22;3628;48.654;8.932;2023-06-14T04:12:41;14.30;88.60
7174;DHT22;3628;48.654;8.932;2023-06-14T04:15:08;14.20;90.40
7174;DHT22;3628;48.654;8.932;2023-06-14T04:17:34;14.30;91.10
7174;DHT22;3628;48.654;8.932;2023-06-14T04:20:00;14.70;90.30
7174;DHT22;3628;48.654;8.932;2023-06-14T04:22:26;15.10;89.00
7174;DHT22;3628;48.654;8.932;2023-06-14T04:24:54;15.40;86.50
7174;DHT22;3628;48.654;8.932;2023-06-14T04:27:22;15.60;84.20
7174;DHT22;3628;48.654;8.932;2023-06-14T04:29:54;15.70;83.20
7174;DHT22;3628;48.654;8.932;2023-06-14T04:32:25;15.70;83.40
7174;DHT22;3628;48.654;8.932;2023-06-14T04:34:55;15.90;83.30
7174;DHT22;3628;48.654;8.932;2023-06-14T04:37:21;15.80;82.90
7174;DHT22;3628;48.654;8.932;2023-06-14T04:39:48;15.70;83.20
7174;DHT22;3628;48.654;8.932;2023-06-14T04:42:14;15.80;82.90
7174;DHT22;3628;48.654;8.932;2023-06-14T04:44:41;15.80;83.10
7174;DHT22;3628;48.654;8.932;2023-06-14T04:47:07;16.00;83.20
7174;DHT22;3628;48.654;8.932;2023-06-14T04:49:32;16.00;82.10
7174;DHT22;3628;48.654;8.932;2023-06-14T04:51:59;16.00;81.20
7174;DHT22;3628;48.654;8.932;2023-06-14T04:54:26;16.00;81.40
7174;DHT22;3628;48.654;8.932;2023-06-14T04:56:53;15.90;81.60
7174;DHT22;3628;48.654;8.932;2023-06-14T04:59:20;15.90;82.30
7174;DHT22;3628;48.654;8.932;2023-06-14T05:01:51;16.10;83.20
7174;DHT22;3628;48.654;8.932;2023-06-14T05:04:18;16.30;82.60
7174;DHT22;3628;48.654;8.932;2023-06-14T05:06:44;16.40;81.90
7174;DHT22;3628;48.654;8.932;2023-06-14T05:09:14;16.50;81.80
7174;DHT22;3628;48.654;8.932;2023-06-14T05:11:40;16.50;81.80
7174;DHT22;3628;48.654;8.932;2023-06-14T05:14:10;16.50;82.80
7174;DHT22;3628;48.654;8.932;2023-06-14T05:16:35;16.60;83.00
7174;DHT22;3628;48.654;8.932;2023-06-14T05:19:02;16.60;82.90
7174;DHT22;3628;48.654;8.932;2023-06-14T05:21:28;16.70;82.80
7174;DHT22;3628;48.654;8.932;2023-06-14T05:23:53;16.80;82.20
7174;DHT22;3628;48.654;8.932;2023-06-14T05:26:19;16.70;82.50
7174;DHT22;3628;48.654;8.932;2023-06-14T05:28:45;16.60;82.60
7174;DHT22;3628;48.654;8.932;2023-06-14T05:31:10;16.50;82.90
7174;DHT22;3628;48.654;8.932;2023-06-14T05:33:36;16.50;83.40
7174;DHT22;3628;48.654;8.932;2023-06-14T05:36:01;16.50;84.70
7174;DHT22;3628;48.654;8.932;2023-06-14T05:38:27;16.50;84.70
7174;DHT22;3628;48.654;8.932;2023-06-14T05:40:53;16.50;86.00
7174;DHT22;3628;48.654;8.932;2023-06-14T05:43:19;16.50;87.10
7174;DHT22;3628;48.654;8.932;2023-06-14T05:45:44;16.50;86.90
7174;DHT22;3628;48.654;8.932;2023-06-14T05:48:10;16.50;86.80
7174;DHT22;3628;48.654;8.932;2023-06-14T05:50:36;16.60;86.30
7174;DHT22;3628;48.654;8.932;2023-06-14T05:53:01;16.80;85.90
7174;DHT22;3628;48.654;8.932;2023-06-14T05:55:27;16.90;84.90
7174;DHT22;3628;48.654;8.932;2023-06-14T05:57:52;17.00;84.60
7174;DHT22;3628;48.654;8.932;2023-06-14T06:00:18;17.20;84.90
7174;DHT22;3628;48.654;8.932;2023-06-14T06:02:45;17.50;85.00
7174;DHT22;3628;48.654;8.932;2023-06-14T06:05:12;17.70;83.20
7174;DHT22;3628;48.654;8.932;2023-06-14T06:07:38;17.90;82.50
7174;DHT22;3628;48.654;8.932;2023-06-14T06:10:05;18.40;83.10
7174;DHT22;3628;48.654;8.932;2023-06-14T06:12:31;18.60;79.00
7174;DHT22;3628;48.654;8.932;2023-06-14T06:14:58;18.50;76.70
7174;DHT22;3628;48.654;8.932;2023-06-14T06:17:25;18.70;77.00
7174;DHT22;3628;48.654;8.932;2023-06-14T06:19:50;18.70;76.00
7174;DHT22;3628;48.654;8.932;2023-06-14T06:22:16;18.70;74.80
7174;DHT22;3628;48.654;8.932;2023-06-14T06:24:42;18.80;75.00
7174;DHT22;3628;48.654;8.932;2023-06-14T06:27:08;18.90;74.50
7174;DHT22;3628;48.654;8.932;2023-06-14T06:29:34;18.80;73.00
7174;DHT22;3628;48.654;8.932;2023-06-14T06:32:00;18.90;73.30
7174;DHT22;3628;48.654;8.932;2023-06-14T06:34:26;18.90;73.30
7174;DHT22;3628;48.654;8.932;2023-06-14T06:36:52;19.00;72.60
7174;DHT22;3628;48.654;8.932;2023-06-14T06:39:17;19.20;72.60
7174;DHT22;3628;48.654;8.932;2023-06-14T06:41:43;19.30;71.90
7174;DHT22;3628;48.654;8.932;2023-06-14T06:44:09;19.40;72.90
7174;DHT22;3628;48.654;8.932;2023-06-14T06:46:36;19.40;72.00
7174;DHT22;3628;48.654;8.932;2023-06-14T06:49:05;19.40;71.90
7174;DHT22;3628;48.654;8.932;2023-06-14T06:51:31;19.40;72.10
7174;DHT22;3628;48.654;8.932;2023-06-14T06:53:56;19.40;72.10
7174;DHT22;3628;48.654;8.932;2023-06-14T06:56:22;19.40;72.50
7174;DHT22;3628;48.654;8.932;2023-06-14T06:58:51;19.50;72.40
7174;DHT22;3628;48.654;8.932;2023-06-14T07:01:17;19.70;73.00
7174;DHT22;3628;48.654;8.932;2023-06-14T07:03:44;19.90;72.10
7174;DHT22;3628;48.654;8.932;2023-06-14T07:06:09;20.00;70.70
7174;DHT22;3628;48.654;8.932;2023-06-14T07:08:35;19.90;70.80
7174;DHT22;3628;48.654;8.932;2023-06-14T07:11:04;19.90;70.70
7174;DHT22;3628;48.654;8.932;2023-06-14T07:13:30;20.10;70.20
7174;DHT22;3628;48.654;8.932;2023-06-14T07:15:58;20.10;70.20
7174;DHT22;3628;48.654;8.932;2023-06-14T07:18:24;20.30;70.60
7174;DHT22;3628;48.654;8.932;2023-06-14T07:20:50;20.40;70.40
7174;DHT22;3628;48.654;8.932;2023-06-14T07:23:15;20.40;69.20
7174;DHT22;3628;48.654;8.932;2023-06-14T07:25:41;20.40;67.40
7174;DHT22;3628;48.654;8.932;2023-06-14T07:28:06;20.60;68.70
7174;DHT22;3628;48.654;8.932;2023-06-14T07:30:32;20.80;69.10
7174;DHT22;3628;48.654;8.932;2023-06-14T07:32:58;20.90;68.00
7174;DHT22;3628;48.654;8.932;2023-06-14T07:35:23;21.00;67.60
7174;DHT22;3628;48.654;8.932;2023-06-14T07:37:49;21.20;66.00
7174;DHT22;3628;48.654;8.932;2023-06-14T07:40:15;21.20;66.00
7174;DHT22;3628;48.654;8.932;2023-06-14T07:42:41;21.30;66.60
7174;DHT22;3628;48.654;8.932;2023-06-14T07:45:07;21.30;65.90
7174;DHT22;3628;48.654;8.932;2023-06-14T07:47:33;21.40;65.70
7174;DHT22;3628;48.654;8.932;2023-06-14T07:49:59;21.50;64.80
7174;DHT22;3628;48.654;8.932;2023-06-14T07:52:24;21.40;63.80
7174;DHT22;3628;48.654;8.932;2023-06-14T07:54:50;21.60;64.10
7174;DHT22;3628;48.654;8.932;2023-06-14T07:57:16;21.70;63.90
7174;DHT22;3628;48.654;8.932;2023-06-14T07:59:42;21.80;64.10
7174;DHT22;3628;48.654;8.932;2023-06-14T08:02:08;21.70;63.40
7174;DHT22;3628;48.654;8.932;2023-06-14T08:04:33;21.60;63.50
7174;DHT22;3628;48.654;8.932;2023-06-14T08:07:00;21.70;62.50
7174;DHT22;3628;48.654;8.932;2023-06-14T08:09:26;21.70;63.00
7174;DHT22;3628;48.654;8.932;2023-06-14T08:11:54;21.70;63.10
7174;DHT22;3628;48.654;8.932;2023-06-14T08:14:19;21.80;62.90
7174;DHT22;3628;48.654;8.932;2023-06-14T08:16:45;21.80;63.60
7174;DHT22;3628;48.654;8.932;2023-06-14T08:19:10;22.00;63.80
7174;DHT22;3628;48.654;8.932;2023-06-14T08:21:36;22.00;62.10
7174;DHT22;3628;48.654;8.932;2023-06-14T08:24:02;22.00;62.40
7174;DHT22;3628;48.654;8.932;2023-06-14T08:26:28;22.10;63.10
7174;DHT22;3628;48.654;8.932;2023-06-14T08:28:57;22.20;62.70
7174;DHT22;3628;48.654;8.932;2023-06-14T08:31:23;22.50;62.40
7174;DHT22;3628;48.654;8.932;2023-06-14T08:33:49;22.40;61.80
7174;DHT22;3628;48.654;8.932;2023-06-14T08:36:15;22.60;62.20
7174;DHT22;3628;48.654;8.932;2023-06-14T08:38:41;22.80;61.20
7174;DHT22;3628;48.654;8.932;2023-06-14T08:41:08;22.80;61.30
7174;DHT22;3628;48.654;8.932;2023-06-14T08:43:36;22.80;58.60
7174;DHT22;3628;48.654;8.932;2023-06-14T08:46:03;22.70;58.40
7174;DHT22;3628;48.654;8.932;2023-06-14T08:48:29;22.90;58.60
7174;DHT22;3628;48.654;8.932;2023-06-14T08:50:59;23.20;59.50
7174;DHT22;3628;48.654;8.932;2023-06-14T08:53:33;23.50;59.80
7174;DHT22;3628;48.654;8.932;2023-06-14T08:56:02;23.50;57.20
7174;DHT22;3628;48.654;8.932;2023-06-14T08:58:30;23.50;57.70
7174;DHT22;3628;48.654;8.932;2023-06-14T09:00:57;23.90;58.00
7174;DHT22;3628;48.654;8.932;2023-06-14T09:03:24;24.10;56.80
7174;DHT22;3628;48.654;8.932;2023-06-14T09:05:57;24.20;56.70
7174;DHT22;3628;48.654;8.932;2023-06-14T09:08:27;24.40;56.40
7174;DHT22;3628;48.654;8.932;2023-06-14T09:10:56;24.50;55.40
7174;DHT22;3628;48.654;8.932;2023-06-14T09:13:22;24.40;55.30
7174;DHT22;3628;48.654;8.932;2023-06-14T09:15:48;24.50;55.60
7174;DHT22;3628;48.654;8.932;2023-06-14T09:18:13;24.60;54.40
7174;DHT22;3628;48.654;8.932;2023-06-14T09:20:40;24.80;54.40
7174;DHT22;3628;48.654;8.932;2023-06-14T09:23:06;25.10;54.80
7174;DHT22;3628;48.654;8.932;2023-06-14T09:25:32;24.60;55.40
7174;DHT22;3628;48.654;8.932;2023-06-14T09:27:58;24.60;53.10
7174;DHT22;3628;48.654;8.932;2023-06-14T09:30:23;24.50;53.40
7174;DHT22;3628;48.654;8.932;2023-06-14T09:32:50;24.70;53.10
7174;DHT22;3628;48.654;8.932;2023-06-14T09:35:17;25.00;52.70
7174;DHT22;3628;48.654;8.932;2023-06-14T09:37:43;25.10;52.70
7174;DHT22;3628;48.654;8.932;2023-06-14T09:40:09;25.40;52.20
7174;DHT22;3628;48.654;8.932;2023-06-14T09:42:35;25.60;52.40
7174;DHT22;3628;48.654;8.932;2023-06-14T09:45:02;25.60;51.30
7174;DHT22;3628;48.654;8.932;2023-06-14T09:47:28;25.60;51.20
7174;DHT22;3628;48.654;8.932;2023-06-14T09:49:55;26.00;50.60
7174;DHT22;3628;48.654;8.932;2023-06-14T09:52:21;25.80;50.90
7174;DHT22;3628;48.654;8.932;2023-06-14T09:54:48;25.40;50.80
7174;DHT22;3628;48.654;8.932;2023-06-14T09:57:23;25.30;51.00
7174;DHT22;3628;48.654;8.932;2023-06-14T09:59:53;25.90;51.20
7174;DHT22;3628;48.654;8.932;2023-06-14T10:02:25;26.50;50.70
7174;DHT22;3628;48.654;8.932;2023-06-14T10:05:04;26.90;49.80
7174;DHT22;3628;48.654;8.932;2023-06-14T10:07:53;27.00;49.50
7174;DHT22;3628;48.654;8.932;2023-06-14T10:10:19;27.10;49.60
7174;DHT22;3628;48.654;8.932;2023-06-14T10:12:45;26.80;47.30
7174;DHT22;3628;48.654;8.932;2023-06-14T10:15:20;26.10;47.80
7174;DHT22;3628;48.654;8.932;2023-06-14T10:18:01;25.50;49.80
7174;DHT22;3628;48.654;8.932;2023-06-14T10:20:37;25.20;49.90
7174;DHT22;3628;48.654;8.932;2023-06-14T10:23:10;24.60;50.50
7174;DHT22;3628;48.654;8.932;2023-06-14T10:25:37;24.50;51.60
7174;DHT22;3628;48.654;8.932;2023-06-14T10:28:23;24.70;51.90
7174;DHT22;3628;48.654;8.932;2023-06-14T10:31:09;25.10;51.80
7174;DHT22;3628;48.654;8.932;2023-06-14T10:33:56;25.50;50.70
7174;DHT22;3628;48.654;8.932;2023-06-14T10:41:52;25.20;50.40
7174;DHT22;3628;48.654;8.932;2023-06-14T10:47:09;25.40;49.30
7174;DHT22;3628;48.654;8.932;2023-06-14T10:49:45;25.70;48.90
7174;DHT22;3628;48.654;8.932;2023-06-14T10:52:12;25.70;48.60
7174;DHT22;3628;48.654;8.932;2023-06-14T10:55:05;25.80;47.80
7174;DHT22;3628;48.654;8.932;2023-06-14T10:57:32;25.80;47.60
7174;DHT22;3628;48.654;8.932;2023-06-14T10:59:59;25.80;47.00
7174;DHT22;3628;48.654;8.932;2023-06-14T11:05:14;25.90;46.20
7174;DHT22;3628;48.654;8.932;2023-06-14T11:08:16;26.30;45.90
7174;DHT22;3628;48.654;8.932;2023-06-14T11:10:44;26.30;45.60
7174;DHT22;3628;48.654;8.932;2023-06-14T11:13:12;25.90;46.00
7174;DHT22;3628;48.654;8.932;2023-06-14T11:15:48;25.60;46.10
7174;DHT22;3628;48.654;8.932;2023-06-14T11:18:15;25.50;46.00
7174;DHT22;3628;48.654;8.932;2023-06-14T11:20:42;25.60;46.10
7174;DHT22;3628;48.654;8.932;2023-06-14T11:23:07;25.80;46.00
7174;DHT22;3628;48.654;8.932;2023-06-14T11:25:33;26.10;45.90
7174;DHT22;3628;48.654;8.932;2023-06-14T11:27:58;26.50;45.60
7174;DHT22;3628;48.654;8.932;2023-06-14T11:30:25;26.90;45.90
7174;DHT22;3628;48.654;8.932;2023-06-14T11:32:54;27.00;45.60
7174;DHT22;3628;48.654;8.932;2023-06-14T11:35:23;27.20;46.00
7174;DHT22;3628;48.654;8.932;2023-06-14T11:37:53;27.10;46.10
7174;DHT22;3628;48.654;8.932;2023-06-14T11:40:19;26.50;45.60
7174;DHT22;3628;48.654;8.932;2023-06-14T11:42:44;26.20;46.40
7174;DHT22;3628;48.654;8.932;2023-06-14T11:45:11;26.10;46.70
7174;DHT22;3628;48.654;8.932;2023-06-14T11:47:38;26.10;46.00
7174;DHT22;3628;48.654;8.932;2023-06-14T11:50:06;26.40;46.10
7174;DHT22;3628;48.654;8.932;2023-06-14T11:52:33;26.80;46.00
7174;DHT22;3628;48.654;8.932;2023-06-14T11:54:59;27.30;45.40
7174;DHT22;3628;48.654;8.932;2023-06-14T11:57:25;27.60;44.90
7174;DHT22;3628;48.654;8.932;2023-06-14T11:59:51;27.90;46.00
7174;DHT22;3628;48.654;8.932;2023-06-14T12:02:19;27.30;45.10
7174;DHT22;3628;48.654;8.932;2023-06-14T12:04:47;26.90;46.30
7174;DHT22;3628;48.654;8.932;2023-06-14T12:07:17;27.00;45.90
7174;DHT22;3628;48.654;8.932;2023-06-14T12:12:24;27.30;45.30
7174;DHT22;3628;48.654;8.932;2023-06-14T12:14:53;27.10;45.20
7174;DHT22;3628;48.654;8.932;2023-06-14T12:17:20;27.20;44.80
7174;DHT22;3628;48.654;8.932;2023-06-14T12:19:46;27.50;45.20
7174;DHT22;3628;48.654;8.932;2023-06-14T12:22:13;27.20;45.30
7174;DHT22;3628;48.654;8.932;2023-06-14T12:24:42;27.10;46.60
7174;DHT22;3628;48.654;8.932;2023-06-14T12:27:08;27.20;46.20
7174;DHT22;3628;48.654;8.932;2023-06-14T12:29:33;27.50;45.70
7174;DHT22;3628;48.654;8.932;2023-06-14T12:31:59;27.90;45.10
7174;DHT22;3628;48.654;8.932;2023-06-14T12:34:25;28.40;44.40
7174;DHT22;3628;48.654;8.932;2023-06-14T12:36:55;28.60;44.00
7174;DHT22;3628;48.654;8.932;2023-06-14T12:39:21;28.00;44.50
7174;DHT22;3628;48.654;8.932;2023-06-14T12:41:47;27.20;44.60
7174;DHT22;3628;48.654;8.932;2023-06-14T12:44:14;26.40;45.60
7174;DHT22;3628;48.654;8.932;2023-06-14T12:46:41;26.30;46.30
7174;DHT22;3628;48.654;8.932;2023-06-14T12:49:11;26.40;47.00
7174;DHT22;3628;48.654;8.932;2023-06-14T12:51:37;26.60;46.80
7174;DHT22;3628;48.654;8.932;2023-06-14T12:54:03;26.40;46.30
7174;DHT22;3628;48.654;8.932;2023-06-14T12:56:29;26.30;46.30
7174;DHT22;3628;48.654;8.932;2023-06-14T12:58:54;26.40;46.30
7174;DHT22;3628;48.654;8.932;2023-06-14T13:01:20;26.40;46.20
7174;DHT22;3628;48.654;8.932;2023-06-14T13:03:49;26.50;45.70
7174;DHT22;3628;48.654;8.932;2023-06-14T13:06:16;26.50;46.00
7174;DHT22;3628;48.654;8.932;2023-06-14T13:08:42;26.60;46.50
7174;DHT22;3628;48.654;8.932;2023-06-14T13:11:07;26.60;45.70
7174;DHT22;3628;48.654;8.932;2023-06-14T13:13:34;26.80;46.10
7174;DHT22;3628;48.654;8.932;2023-06-14T13:16:00;27.10;46.10
7174;DHT22;3628;48.654;8.932;2023-06-14T13:18:26;27.00;46.00
7174;DHT22;3628;48.654;8.932;2023-06-14T13:20:52;27.10;45.90
7174;DHT22;3628;48.654;8.932;2023-06-14T13:23:17;27.00;45.10
7174;DHT22;3628;48.654;8.932;2023-06-14T13:25:43;27.00;45.50
7174;DHT22;3628;48.654;8.932;2023-06-14T13:28:09;27.00;45.10
7174;DHT22;3628;48.654;8.932;2023-06-14T13:30:35;26.80;45.20
7174;DHT22;3628;48.654;8.932;2023-06-14T13:33:01;26.80;45.70
7174;DHT22;3628;48.654;8.932;2023-06-14T13:35:27;26.60;45.90
7174;DHT22;3628;48.654;8.932;2023-06-14T13:37:53;26.50;46.20
7174;DHT22;3628;48.654;8.932;2023-06-14T13:40:18;26.40;46.20
7174;DHT22;3628;48.654;8.932;2023-06-14T13:42:45;26.10;46.40
7174;DHT22;3628;48.654;8.932;2023-06-14T13:45:12;26.20;46.60
7174;DHT22;3628;48.654;8.932;2023-06-14T13:47:38;26.10;46.20
7174;DHT22;3628;48.654;8.932;2023-06-14T13:50:04;26.30;46.60
7174;DHT22;3628;48.654;8.932;2023-06-14T13:52:30;26.30;46.10
7174;DHT22;3628;48.654;8.932;2023-06-14T13:54:56;26.50;46.20
7174;DHT22;3628;48.654;8.932;2023-06-14T13:57:21;26.50;45.80
7174;DHT22;3628;48.654;8.932;2023-06-14T13:59:47;26.30;45.90
7174;DHT22;3628;48.654;8.932;2023-06-14T14:02:13;26.20;46.00
7174;DHT22;3628;48.654;8.932;2023-06-14T14:04:40;26.40;45.50
7174;DHT22;3628;48.654;8.932;2023-06-14T14:07:06;26.50;45.30
7174;DHT22;3628;48.654;8.932;2023-06-14T14:09:33;27.10;45.60
7174;DHT22;3628;48.654;8.932;2023-06-14T14:12:00;27.20;44.30
7174;DHT22;3628;48.654;8.932;2023-06-14T14:14:26;27.00;44.50
7174;DHT22;3628;48.654;8.932;2023-06-14T14:16:52;26.70;44.90
7174;DHT22;3628;48.654;8.932;2023-06-14T14:19:20;26.80;44.90
7174;DHT22;3628;48.654;8.932;2023-06-14T14:21:46;26.70;44.70
7174;DHT22;3628;48.654;8.932;2023-06-14T14:24:12;27.00;44.70
7174;DHT22;3628;48.654;8.932;2023-06-14T14:26:37;27.20;44.80
7174;DHT22;3628;48.654;8.932;2023-06-14T14:29:03;26.80;44.40
7174;DHT22;3628;48.654;8.932;2023-06-14T14:31:29;26.90;45.10
7174;DHT22;3628;48.654;8.932;2023-06-14T14:33:55;27.10;44.60
7174;DHT22;3628;48.654;8.932;2023-06-14T14:36:20;26.70;44.40
7174;DHT22;3628;48.654;8.932;2023-06-14T14:38:46;26.40;45.00
7174;DHT22;3628;48.654;8.932;2023-06-14T14:41:12;26.40;45.50
7174;DHT22;3628;48.654;8.932;2023-06-14T14:43:38;26.40;45.30
7174;DHT22;3628;48.654;8.932;2023-06-14T14:46:03;26.40;45.10
7174;DHT22;3628;48.654;8.932;2023-06-14T14:48:29;26.70;44.80
7174;DHT22;3628;48.654;8.932;2023-06-14T14:50:55;26.70;44.70
7174;DHT22;3628;48.654;8.932;2023-06-14T14:53:20;26.50;45.20
7174;DHT22;3628;48.654;8.932;2023-06-14T14:55:46;26.50;45.00
7174;DHT22;3628;48.654;8.932;2023-06-14T14:58:12;26.80;45.10
7174;DHT22;3628;48.654;8.932;2023-06-14T15:00:38;26.90;45.10
7174;DHT22;3628;48.654;8.932;2023-06-14T15:03:04;26.70;45.40
7174;DHT22;3628;48.654;8.932;2023-06-14T15:05:29;26.70;44.80
7174;DHT22;3628;48.654;8.932;2023-06-14T15:07:55;27.00;45.70
7174;DHT22;3628;48.654;8.932;2023-06-14T15:10:20;27.00;45.50
7174;DHT22;3628;48.654;8.932;2023-06-14T15:12:46;26.90;45.40
7174;DHT22;3628;48.654;8.932;2023-06-14T15:15:12;27.00;45.10
7174;DHT22;3628;48.654;8.932;2023-06-14T15:17:37;26.70;45.00
7174;DHT22;3628;48.654;8.932;2023-06-14T15:20:03;27.00;44.90
7174;DHT22;3628;48.654;8.932;2023-06-14T15:22:29;27.20;45.00
7174;DHT22;3628;48.654;8.932;2023-06-14T15:24:55;27.30;44.50
7174;DHT22;3628;48.654;8.932;2023-06-14T15:27:20;27.20;44.50
7174;DHT22;3628;48.654;8.932;2023-06-14T15:29:46;27.30;44.40
7174;DHT22;3628;48.654;8.932;2023-06-14T15:32:12;27.20;44.60
7174;DHT22;3628;48.654;8.932;2023-06-14T15:34:38;26.80;44.80
7174;DHT22;3628;48.654;8.932;2023-06-14T15:37:08;27.00;44.90
7174;DHT22;3628;48.654;8.932;2023-06-14T15:39:34;27.30;44.60
7174;DHT22;3628;48.654;8.932;2023-06-14T15:41:59;27.30;44.40
7174;DHT22;3628;48.654;8.932;2023-06-14T15:44:26;27.30;45.20
7174;DHT22;3628;48.654;8.932;2023-06-14T15:46:51;27.50;45.60
7174;DHT22;3628;48.654;8.932;2023-06-14T15:49:17;27.00;45.30
7174;DHT22;3628;48.654;8.932;2023-06-14T15:51:43;26.90;46.20
7174;DHT22;3628;48.654;8.932;2023-06-14T15:54:08;26.70;46.70
7174;DHT22;3628;48.654;8.932;2023-06-14T15:56:34;26.50;46.30
7174;DHT22;3628;48.654;8.932;2023-06-14T15:59:00;26.40;46.60
7174;DHT22;3628;48.654;8.932;2023-06-14T16:01:26;26.40;46.70
7174;DHT22;3628;48.654;8.932;2023-06-14T16:03:52;26.40;46.90
7174;DHT22;3628;48.654;8.932;2023-06-14T16:06:18;26.40;47.00
7174;DHT22;3628;48.654;8.932;2023-06-14T16:08:44;26.40;46.90
7174;DHT22;3628;48.654;8.932;2023-06-14T16:11:10;26.70;46.70
7174;DHT22;3628;48.654;8.932;2023-06-14T16:13:36;27.10;46.60
7174;DHT22;3628;48.654;8.932;2023-06-14T16:16:02;27.20;45.60